Phyllis Dunlap — WDA6552 — position and weather

sailwx.info

Track history (hours):
 
Tides and Currents Weather Stations Pressure Air Temp Water Temp Dewpoint Dewpoint Depression Visibility Wind Speed Wind Dir Waves Ship Positions

Phyllis Dunlap

Owner: DUNLAP TOWING CO, LA CONNER, WA. More information available from US FCC via Universal Licensing System and Coast Guard Vessel Documentation Center.

Last reported at 2017-Oct-17 16:24 UTC. Time now 2017-Oct-18 20:07 UTC.
Position N 47°59' W 122°13'.

Type: . MMSI: 366833610.

Date/timePositionNaut miles runAvg speedWind from/ knotsBaromVisibWave heightAir tempDewpointWater temp
2017-Oct-17 16:24N 47°59' W 122°13'2 5.5
2017-Oct-17 16:00N 47°58' W 122°16'612.5
2017-Oct-17 15:30N 47°53' W 122°21'713.5
2017-Oct-17 15:01N 47°47' W 122°25'714.1
2017-Oct-17 14:30N 47°40' W 122°27'5 9.3
2017-Oct-17 14:00N 47°36' W 122°22'1 1.1
2017-Oct-17 13:30N 47°36' W 122°23'3 5.5
2017-Oct-17 13:01N 47°38' W 122°26'3 6.0
2017-Oct-17 12:30N 47°41' W 122°28'4 7.3
2017-Oct-17 12:00N 47°44' W 122°27'3 6.3
2017-Oct-17 11:30N 47°47' W 122°27'3 6.3
2017-Oct-17 11:00N 47°50' W 122°29'3 6.4
2017-Oct-17 10:30N 47°53' W 122°30'3 5.9
2017-Oct-17 10:00N 47°56' W 122°32'4 8.1
2017-Oct-17 09:30N 47°59' W 122°36'23 7.5
2017-Oct-17 06:24N 48°12' W 123°05'5 8.7
2017-Oct-17 05:51N 48°12' W 123°12'4 8.2
2017-Oct-17 05:25N 48°12' W 123°18'3 8.1
2017-Oct-17 05:00N 48°12' W 123°23'4 7.5
2017-Oct-17 04:28N 48°12' W 123°29'2 4.9
2017-Oct-17 04:00N 48°12' W 123°32'3 6.4
2017-Oct-17 03:30N 48°12' W 123°37'3 6.3
2017-Oct-17 03:00N 48°12' W 123°42'3 6.2
2017-Oct-17 02:30N 48°12' W 123°46'4 6.4
2017-Oct-17 01:56N 48°12' W 123°52'3 6.4
2017-Oct-17 01:29N 48°12' W 123°56'4 6.7
2017-Oct-17 00:51N 48°14' W 124°02'3 7.5
2017-Oct-17 00:29N 48°16' W 124°06'4 7.7
2017-Oct-16 23:59N 48°17' W 124°11'3 5.4
2017-Oct-16 23:30N 48°18' W 124°14'4 8.9
2017-Oct-16 23:00N 48°20' W 124°20'5 9.7
2017-Oct-16 22:30N 48°22' W 124°27'5 9.4
2017-Oct-16 22:00N 48°24' W 124°33'510.0
2017-Oct-16 21:30N 48°26' W 124°40'510.8
2017-Oct-16 21:00N 48°27' W 124°48'  
Track history (hours):
 
Tides and Currents Weather Stations Pressure Air Temp Water Temp Dewpoint Dewpoint Depression Visibility Wind Speed Wind Dir Waves Ship Positions

Phyllis Dunlap

Owner: DUNLAP TOWING CO, LA CONNER, WA. More information available from US FCC via Universal Licensing System and Coast Guard Vessel Documentation Center.

Last reported at 2017-Oct-17 16:24 UTC. Time now 2017-Oct-18 20:07 UTC.
Position N 47°59' W 122°13'.

Type: . MMSI: 366833610.

Date/timePositionNaut miles runAvg speedWind from/ knotsBaromVisibWave heightAir tempDewpointWater temp
2017-Oct-17 16:24N 47°59' W 122°13'2 5.5
2017-Oct-17 16:00N 47°58' W 122°16'612.5
2017-Oct-17 15:30N 47°53' W 122°21'713.5
2017-Oct-17 15:01N 47°47' W 122°25'714.1
2017-Oct-17 14:30N 47°40' W 122°27'5 9.3
2017-Oct-17 14:00N 47°36' W 122°22'1 1.1
2017-Oct-17 13:30N 47°36' W 122°23'3 5.5
2017-Oct-17 13:01N 47°38' W 122°26'3 6.0
2017-Oct-17 12:30N 47°41' W 122°28'4 7.3
2017-Oct-17 12:00N 47°44' W 122°27'3 6.3
2017-Oct-17 11:30N 47°47' W 122°27'3 6.3
2017-Oct-17 11:00N 47°50' W 122°29'3 6.4
2017-Oct-17 10:30N 47°53' W 122°30'3 5.9
2017-Oct-17 10:00N 47°56' W 122°32'4 8.1
2017-Oct-17 09:30N 47°59' W 122°36'23 7.5
2017-Oct-17 06:24N 48°12' W 123°05'5 8.7
2017-Oct-17 05:51N 48°12' W 123°12'4 8.2
2017-Oct-17 05:25N 48°12' W 123°18'3 8.1
2017-Oct-17 05:00N 48°12' W 123°23'4 7.5
2017-Oct-17 04:28N 48°12' W 123°29'2 4.9
2017-Oct-17 04:00N 48°12' W 123°32'3 6.4
2017-Oct-17 03:30N 48°12' W 123°37'3 6.3
2017-Oct-17 03:00N 48°12' W 123°42'3 6.2
2017-Oct-17 02:30N 48°12' W 123°46'4 6.4
2017-Oct-17 01:56N 48°12' W 123°52'3 6.4
2017-Oct-17 01:29N 48°12' W 123°56'4 6.7
2017-Oct-17 00:51N 48°14' W 124°02'3 7.5
2017-Oct-17 00:29N 48°16' W 124°06'4 7.7
2017-Oct-16 23:59N 48°17' W 124°11'3 5.4
2017-Oct-16 23:30N 48°18' W 124°14'4 8.9
2017-Oct-16 23:00N 48°20' W 124°20'5 9.7
2017-Oct-16 22:30N 48°22' W 124°27'5 9.4
2017-Oct-16 22:00N 48°24' W 124°33'510.0
2017-Oct-16 21:30N 48°26' W 124°40'510.8
2017-Oct-16 21:00N 48°27' W 124°48'  

Dump ship's entire track history